Time;durP1;ratioP1;P1;durP2;ratioP2;P2;SDS_P1;SDS_P2;PMS_P1;PMS_P2;Temp;Humidity;BMP_temperature;BMP_pressure;BME280_temperature;BME280_humidity;BME280_pressure;Samples;Min_cycle;Max_cycle;Signal;HPM_P1;HPM_P2
2021/06/07 00:01:54;;;;;;;4.60;1.77;;;16.10;99.90;;;15.87;84.89;102011.00;3936874;30;20036;-66
2021/06/07 00:03:55;;;;;;;3.78;1.80;;;16.10;99.90;;;15.99;84.32;102012.38;3936638;30;20029;-67
2021/06/07 00:05:56;;;;;;;2.65;1.52;;;16.10;99.90;;;15.90;84.74;102009.84;3936815;30;20493;-66
2021/06/07 00:07:57;;;;;;;5.38;1.83;;;16.10;99.90;;;15.84;85.02;102007.81;3936779;30;20112;-66
2021/06/07 00:09:58;;;;;;;2.20;1.63;;;16.10;99.90;;;15.94;84.46;102022.69;3936740;30;20032;-66
2021/06/07 00:12:06;;;;;;;2.78;1.40;;;16.10;99.90;;;15.83;84.69;102016.81;3936760;30;20056;-67
2021/06/07 00:14:09;;;;;;;5.38;2.10;;;16.10;99.90;;;15.70;85.11;102003.09;3936440;30;20028;-66
2021/06/07 00:16:12;;;;;;;2.97;1.80;;;16.00;99.90;;;15.72;85.33;102017.06;3936602;30;20044;-66
2021/06/07 00:18:15;;;;;;;4.10;2.25;;;16.00;99.90;;;15.65;85.00;102010.72;3936730;30;20032;-66
2021/06/07 00:20:31;;;;;;;2.90;1.77;;;16.00;99.90;;;15.62;85.28;102014.50;3936678;30;20036;-66
2021/06/07 00:22:32;;;;;;;3.75;1.70;;;15.90;99.90;;;15.58;85.85;102005.19;3936708;30;20040;-66
2021/06/07 00:24:33;;;;;;;4.93;1.67;;;15.90;99.90;;;15.54;86.03;102003.00;3936545;30;20036;-66
2021/06/07 00:26:36;;;;;;;3.47;1.50;;;15.80;99.90;;;15.38;86.47;101999.22;3936435;30;20115;-66
2021/06/07 00:28:38;;;;;;;2.63;2.25;;;15.80;99.90;;;15.43;86.48;101991.63;3936309;30;20111;-67
2021/06/07 00:30:39;;;;;;;3.10;1.70;;;15.80;99.90;;;15.49;85.71;101988.38;3936488;30;20043;-66
2021/06/07 00:32:40;;;;;;;4.43;1.98;;;15.80;99.90;;;15.68;85.79;101999.78;3936479;30;20147;-66
2021/06/07 00:34:41;;;;;;;4.25;1.95;;;15.90;99.90;;;15.65;86.28;101994.78;3936275;30;20036;-66
2021/06/07 00:36:42;;;;;;;2.55;1.75;;;15.90;99.90;;;15.76;84.85;102007.78;3936339;30;20075;-66
2021/06/07 00:38:43;;;;;;;2.83;1.60;;;15.90;99.90;;;15.72;85.17;101998.44;3920716;30;20075;-66
2021/06/07 00:40:44;;;;;;;3.15;2.20;;;16.00;99.90;;;15.71;85.37;101994.94;3936392;30;20036;-66
2021/06/07 00:42:45;;;;;;;5.10;1.77;;;16.00;99.90;;;15.73;85.29;102002.78;3936193;30;20040;-66
2021/06/07 00:44:46;;;;;;;5.32;2.20;;;16.00;99.90;;;15.81;84.63;102003.66;3935877;30;20044;-66
2021/06/07 00:46:48;;;;;;;2.97;1.60;;;16.00;99.90;;;15.82;84.44;102005.31;3936249;30;20039;-66
2021/06/07 00:48:49;;;;;;;3.33;1.33;;;16.10;99.90;;;15.92;83.56;102002.50;3936232;30;20040;-66
2021/06/07 00:50:58;;;;;;;2.50;1.63;;;16.10;99.90;;;15.87;83.71;102004.84;3936154;30;20051;-66
2021/06/07 00:53:01;;;;;;;4.38;1.63;;;16.10;99.90;;;15.84;84.07;102003.34;3936239;30;20028;-66
2021/06/07 00:55:04;;;;;;;3.72;2.20;;;16.10;99.90;;;15.94;83.83;101996.06;3936056;30;20032;-66
2021/06/07 00:57:05;;;;;;;2.72;1.48;;;16.10;99.90;;;15.84;83.91;101975.88;3935987;30;20040;-66
2021/06/07 00:59:06;;;;;;;2.83;1.50;;;16.20;99.90;;;15.98;83.72;101991.22;3935691;30;20161;-67
2021/06/07 01:01:11;;;;;;;3.58;1.90;;;16.20;99.90;;;15.95;84.17;101996.88;3936173;30;20025;-66
2021/06/07 01:03:14;;;;;;;2.83;1.55;;;16.20;99.90;;;15.78;84.83;101990.66;3936031;30;20433;-67
2021/06/07 01:05:15;;;;;;;1.35;1.20;;;16.10;99.90;;;15.76;84.76;101994.47;3935977;30;20567;-66
2021/06/07 01:07:16;;;;;;;2.40;1.27;;;16.10;99.90;;;15.71;84.76;101996.78;3935861;30;20043;-66
2021/06/07 01:09:17;;;;;;;2.75;1.30;;;16.00;99.90;;;15.65;85.62;101995.56;3920329;30;20029;-66
2021/06/07 01:11:21;;;;;;;2.15;1.58;;;16.00;99.90;;;15.61;85.71;101988.94;3936054;30;20071;-66
2021/06/07 01:13:24;;;;;;;2.70;1.15;;;15.90;99.90;;;15.54;85.79;101997.69;3935892;30;20035;-66
2021/06/07 01:15:26;;;;;;;3.35;1.30;;;15.90;99.90;;;15.45;86.20;101986.97;3935844;30;20048;-66
2021/06/07 01:17:27;;;;;;;2.30;1.35;;;15.80;99.90;;;15.36;86.45;101984.41;3935984;30;20028;-66
2021/06/07 01:19:29;;;;;;;3.58;1.30;;;15.70;99.90;;;15.44;86.25;101985.28;3935864;30;20111;-66
2021/06/07 01:21:30;;;;;;;1.45;1.15;;;15.70;99.90;;;15.51;86.04;101996.16;3935831;30;20156;-66
2021/06/07 01:23:31;;;;;;;2.53;1.38;;;15.70;99.90;;;15.54;86.02;101987.88;3935731;30;20047;-66
2021/06/07 01:25:38;;;;;;;3.38;1.65;;;15.70;99.90;;;15.60;85.22;101987.25;3935946;30;20068;-66
2021/06/07 01:27:40;;;;;;;1.40;1.00;;;15.70;99.90;;;15.60;84.37;101986.41;3936108;30;20493;-66
2021/06/07 01:29:41;;;;;;;3.13;1.45;;;15.70;99.90;;;15.59;83.92;101982.91;3935588;30;20048;-66
2021/06/07 01:31:42;;;;;;;2.13;1.40;;;15.70;99.90;;;15.32;84.74;101975.91;3935956;30;20051;-66
2021/06/07 01:33:50;;;;;;;2.28;1.33;;;15.60;99.90;;;15.23;85.45;101984.81;3936091;30;20032;-66
2021/06/07 01:35:58;;;;;;;6.47;1.52;;;15.50;99.90;;;15.16;85.27;101972.31;3935637;30;20060;-66
2021/06/07 01:37:59;;;;;;;1.40;1.13;;;15.50;99.90;;;15.23;85.60;101971.53;3935850;30;20469;-66
2021/06/07 01:40:01;;;;;;;4.75;1.30;;;15.50;99.90;;;15.32;85.17;101977.75;3935905;30;20047;-66
2021/06/07 01:42:03;;;;;;;1.73;1.10;;;15.40;99.90;;;15.31;85.64;101976.09;3935804;30;20063;-66
2021/06/07 01:44:04;;;;;;;3.78;1.30;;;15.40;99.90;;;15.19;86.21;101974.66;3935357;30;20044;-66
2021/06/07 01:46:06;;;;;;;4.93;1.65;;;15.40;99.90;;;15.24;85.99;101969.72;3935499;30;20028;-66
2021/06/07 01:48:11;;;;;;;4.25;1.60;;;15.30;99.90;;;15.11;86.43;101978.13;3935736;30;20040;-66
2021/06/07 01:50:14;;;;;;;2.70;1.35;;;15.30;99.90;;;15.06;86.14;101980.38;3935624;30;20414;-66
2021/06/07 01:52:15;;;;;;;4.53;1.23;;;15.30;99.90;;;15.01;86.36;101969.41;3935655;30;20397;-66
2021/06/07 01:54:16;;;;;;;2.88;1.30;;;15.20;99.90;;;14.99;86.22;101970.53;3935470;30;20113;-66
2021/06/07 01:56:17;;;;;;;4.22;1.50;;;15.20;99.90;;;14.96;86.59;101966.38;3935672;30;20095;-66
2021/06/07 01:58:20;;;;;;;4.00;1.30;;;15.20;99.90;;;14.96;86.69;101972.50;3935478;30;20059;-67
2021/06/07 02:00:31;;;;;;;4.22;1.55;;;15.20;99.90;;;15.03;86.24;101967.41;3935501;30;20059;-66
2021/06/07 02:02:32;;;;;;;3.15;1.52;;;15.10;99.90;;;15.05;85.75;101959.31;3935463;30;20040;-66
2021/06/07 02:04:34;;;;;;;2.10;1.60;;;15.20;99.90;;;14.95;86.66;101965.53;3935549;30;20041;-67
2021/06/07 02:06:35;;;;;;;3.40;1.90;;;15.20;99.90;;;14.88;87.06;101966.28;3937621;30;20032;-66
2021/06/07 02:08:37;;;;;;;4.03;1.77;;;15.10;99.90;;;14.86;86.95;101965.63;3938239;30;20043;-66
2021/06/07 02:10:46;;;;;;;3.67;1.65;;;15.00;99.90;;;14.92;86.46;101975.63;3938483;30;20032;-66
2021/06/07 02:12:47;;;;;;;1.95;1.30;;;15.00;99.90;;;15.04;85.80;101963.78;3938412;30;20103;-66
2021/06/07 02:14:48;;;;;;;2.97;1.50;;;15.10;99.90;;;14.92;86.70;101965.00;3938120;30;20054;-66
2021/06/07 02:16:49;;;;;;;4.75;1.52;;;15.10;99.90;;;15.01;85.91;101969.41;3938172;30;20044;-66
2021/06/07 02:18:50;;;;;;;2.63;1.50;;;15.10;99.90;;;14.96;86.04;101969.84;3938370;30;20036;-66
2021/06/07 02:20:51;;;;;;;2.75;1.45;;;15.00;99.90;;;14.71;87.14;101968.00;3938185;30;20131;-66
2021/06/07 02:22:52;;;;;;;3.25;2.08;;;15.00;99.90;;;14.56;87.63;101972.16;3938133;30;20044;-66
2021/06/07 02:24:53;;;;;;;2.63;1.95;;;14.90;99.90;;;14.60;87.83;101967.41;3937944;30;20053;-66
2021/06/07 02:26:54;;;;;;;2.72;1.70;;;14.80;99.90;;;14.54;88.51;101971.50;3938120;30;20039;-66
2021/06/07 02:29:08;;;;;;;4.20;1.45;;;14.80;99.90;;;14.53;88.07;101975.13;3937908;30;20574;-66
2021/06/07 02:31:09;;;;;;;1.73;1.53;;;14.70;99.90;;;14.60;88.00;101964.75;3937934;30;20028;-67
2021/06/07 02:33:10;;;;;;;3.97;2.00;;;14.80;99.90;;;14.48;88.47;101968.63;3937918;30;20047;-66
2021/06/07 02:35:16;;;;;;;3.55;1.50;;;14.70;99.90;;;14.32;89.02;101967.47;3938162;30;20028;-66
2021/06/07 02:37:18;;;;;;;2.28;2.00;;;14.60;99.90;;;14.33;89.01;101966.50;3937801;30;20091;-66
2021/06/07 02:39:22;;;;;;;4.78;2.33;;;14.60;99.90;;;14.31;89.87;101970.22;3938104;30;20059;-66
2021/06/07 02:41:23;;;;;;;;;;;14.60;99.90;;;14.31;89.56;101965.75;3938157;30;20033;-66
2021/06/07 02:43:24;;;;;;;4.90;2.10;;;14.60;99.90;;;14.28;89.84;101966.06;3937536;30;19918;-66
2021/06/07 02:45:27;;;;;;;4.57;2.20;;;14.60;99.90;;;14.23;90.25;101962.19;3937934;30;20039;-66
2021/06/07 02:47:28;;;;;;;4.23;2.00;;;14.50;99.90;;;14.28;90.15;101965.22;3937889;30;20033;-66
2021/06/07 02:49:30;;;;;;;4.53;2.17;;;14.40;99.90;;;14.20;90.13;101968.63;3937682;30;20274;-66
2021/06/07 02:51:31;;;;;;;6.07;1.80;;;14.50;99.90;;;14.23;90.36;101973.63;3937854;30;20037;-66
2021/06/07 02:53:32;;;;;;;5.72;2.47;;;14.40;99.90;;;14.11;90.95;101966.88;3937652;30;20526;-66
2021/06/07 02:55:38;;;;;;;4.88;2.47;;;14.30;99.90;;;14.27;89.89;101972.38;3937773;30;20065;-66
2021/06/07 02:57:39;;;;;;;3.80;1.90;;;14.40;99.90;;;14.14;89.79;101965.72;3937704;30;20105;-66
2021/06/07 02:59:40;;;;;;;7.38;2.40;;;14.40;99.90;;;14.06;90.58;101965.66;3937510;30;20039;-66
2021/06/07 03:01:41;;;;;;;5.55;2.42;;;14.30;99.90;;;14.05;91.04;101964.81;3937707;30;20072;-66
2021/06/07 03:03:42;;;;;;;5.93;2.22;;;14.20;99.90;;;14.10;90.86;101964.34;3937500;30;20483;-66
2021/06/07 03:05:46;;;;;;;4.57;2.28;;;14.30;99.90;;;14.08;90.34;101963.66;3937676;30;20074;-66
2021/06/07 03:07:47;;;;;;;4.85;2.28;;;14.30;99.90;;;14.00;91.14;101961.78;3937771;30;20036;-66
2021/06/07 03:09:47;;;;;;;6.78;2.90;;;14.30;99.90;;;13.83;92.18;101959.88;3937682;30;20029;-66
2021/06/07 03:11:48;;;;;;;4.80;2.53;;;14.20;99.90;;;13.80;92.12;101960.19;3937652;30;20033;-66
2021/06/07 03:13:50;;;;;;;4.35;2.10;;;14.10;99.90;;;13.78;92.22;101963.00;3937550;30;20036;-66
2021/06/07 03:15:54;;;;;;;2.47;2.13;;;14.00;99.90;;;13.67;92.82;101960.53;3921825;30;20041;-66
2021/06/07 03:17:55;;;;;;;5.20;2.33;;;14.00;99.90;;;13.75;92.45;101965.94;3936526;30;20396;-66
2021/06/07 03:19:56;;;;;;;5.28;2.35;;;13.90;99.90;;;13.91;91.72;101967.97;3937230;30;20040;-66
2021/06/07 03:21:57;;;;;;;4.18;2.50;;;14.00;99.90;;;13.97;91.69;101967.38;3937448;30;20062;-66
2021/06/07 03:23:58;;;;;;;4.47;2.40;;;14.10;99.90;;;13.91;91.64;101967.97;3937394;30;20043;-66
2021/06/07 03:26:00;;;;;;;3.03;2.00;;;14.20;99.90;;;13.91;91.89;101965.31;3937280;30;20406;-66
2021/06/07 03:28:02;;;;;;;6.63;2.50;;;14.10;99.90;;;13.76;92.72;101959.66;3937165;30;20452;-66
2021/06/07 03:30:06;;;;;;;5.05;2.30;;;14.00;99.90;;;13.64;92.88;101963.50;3937329;30;20036;-66
2021/06/07 03:32:08;;;;;;;;;;;13.90;99.90;;;13.62;92.84;101967.28;3937294;30;20043;-66
2021/06/07 03:34:09;;;;;;;3.15;2.30;;;13.90;99.90;;;13.60;93.19;101962.09;3937452;30;19914;-66
2021/06/07 03:36:10;;;;;;;5.38;2.30;;;13.80;99.90;;;13.66;92.98;101964.16;3937055;30;20086;-66
2021/06/07 03:38:13;;;;;;;3.50;2.10;;;13.80;99.90;;;13.50;93.48;101961.28;3937251;30;20032;-66
2021/06/07 03:40:27;;;;;;;5.88;2.40;;;13.80;99.90;;;13.62;93.28;101962.78;3937356;30;20063;-66
2021/06/07 03:42:28;;;;;;;4.70;2.80;;;13.80;99.90;;;13.82;92.36;101968.84;3937135;30;20040;-66
2021/06/07 03:44:29;;;;;;;4.85;2.20;;;13.90;99.90;;;13.66;92.83;101963.34;3936661;30;20040;-66
2021/06/07 03:46:30;;;;;;;5.25;2.53;;;13.90;99.90;;;13.76;92.73;101958.84;3937259;30;20433;-66
2021/06/07 03:48:31;;;;;;;6.65;3.05;;;14.00;99.90;;;13.65;92.77;101961.69;3937014;30;20075;-66
2021/06/07 03:50:35;;;;;;;4.20;2.70;;;13.90;99.90;;;13.55;93.51;101955.56;3936912;30;20047;-66
2021/06/07 03:52:37;;;;;;;6.47;2.53;;;13.80;99.90;;;13.59;93.50;101960.41;3936779;30;20036;-66
2021/06/07 03:54:38;;;;;;;5.25;2.50;;;13.90;99.90;;;13.59;94.13;101956.97;3936807;30;20048;-66
2021/06/07 03:56:39;;;;;;;5.15;3.13;;;13.90;99.90;;;13.53;93.88;101957.53;3936847;30;20036;-66
2021/06/07 03:58:40;;;;;;;5.68;2.60;;;13.90;99.90;;;13.51;94.22;101954.19;3936727;30;20129;-66
2021/06/07 04:00:41;;;;;;;3.78;2.50;;;13.80;99.90;;;13.60;93.70;101950.66;3936594;30;20075;-66
2021/06/07 04:02:44;;;;;;;4.85;2.42;;;13.80;99.90;;;13.53;93.69;101947.75;3935661;30;20063;-66
2021/06/07 04:04:45;;;;;;;3.17;2.53;;;13.90;99.90;;;13.58;94.05;101950.81;3936766;30;20452;-66
2021/06/07 04:06:45;;;;;;;6.05;2.60;;;13.80;99.90;;;13.58;93.96;101957.94;3936860;30;20028;-66
2021/06/07 04:08:47;;;;;;;5.70;3.38;;;13.80;99.90;;;13.59;94.27;101952.47;3936827;30;20516;-66
2021/06/07 04:10:48;;;;;;;3.20;2.80;;;13.90;99.90;;;13.51;94.87;101957.66;3936779;30;20039;-66
2021/06/07 04:12:50;;;;;;;4.85;2.60;;;13.80;99.90;;;13.52;94.63;101951.41;3936798;30;20064;-66
2021/06/07 04:14:51;;;;;;;6.88;2.85;;;13.80;99.90;;;13.53;94.41;101947.75;3936478;30;20072;-66
2021/06/07 04:16:52;;;;;;;3.75;2.53;;;13.80;99.90;;;13.53;94.49;101947.75;3936571;30;20071;-66
2021/06/07 04:18:53;;;;;;;6.15;3.13;;;13.80;99.90;;;13.52;95.00;101945.25;3936773;30;20036;-66
2021/06/07 04:20:54;;;;;;;4.93;2.97;;;13.80;99.90;;;13.55;94.44;101944.97;3936616;30;20028;-66
2021/06/07 04:22:56;;;;;;;5.15;3.13;;;13.80;99.90;;;13.58;94.57;101947.31;3936814;30;20047;-66
2021/06/07 04:24:57;;;;;;;3.85;2.97;;;13.80;99.90;;;13.51;95.04;101940.94;3936490;30;20044;-66
2021/06/07 04:26:58;;;;;;;4.82;3.03;;;13.80;99.90;;;13.56;94.64;101946.66;3936540;30;20500;-66
2021/06/07 04:28:59;;;;;;;4.78;3.10;;;13.80;99.90;;;13.43;94.94;101946.13;3935813;30;20047;-66
2021/06/07 04:31:01;;;;;;;4.45;2.60;;;13.80;99.90;;;13.45;94.41;101952.94;3936480;30;20032;-66
2021/06/07 04:33:03;;;;;;;5.78;2.15;;;13.70;99.90;;;13.37;94.95;101952.84;3936416;30;20055;-66
2021/06/07 04:35:08;;;;;;;4.65;2.85;;;13.60;99.90;;;13.51;94.87;101948.88;3936350;30;20078;-66
2021/06/07 04:37:09;;;;;;;4.90;3.35;;;13.70;99.90;;;13.49;95.05;101946.38;3936118;30;20060;-66
2021/06/07 04:39:11;;;;;;;5.47;2.95;;;13.70;99.90;;;13.50;95.21;101949.88;3936292;30;20028;-66
2021/06/07 04:41:12;;;;;;;6.38;2.92;;;13.80;99.90;;;13.51;95.51;101951.53;3936312;30;20033;-66
2021/06/07 04:43:14;;;;;;;6.18;3.20;;;13.80;99.90;;;13.60;94.77;101948.84;3935897;30;20036;-66
2021/06/07 04:45:17;;;;;;;5.55;2.70;;;13.80;99.90;;;13.49;95.21;101940.25;3936306;30;20032;-66
2021/06/07 04:47:18;;;;;;;7.22;3.60;;;13.80;99.90;;;13.53;95.02;101962.84;3920488;30;20037;-66
2021/06/07 04:49:19;;;;;;;4.13;2.67;;;13.80;99.90;;;13.48;95.05;101955.31;3936108;30;20035;-66
2021/06/07 04:51:20;;;;;;;4.53;2.63;;;13.80;99.90;;;13.32;95.35;101961.22;3936383;30;20076;-66
2021/06/07 04:53:21;;;;;;;3.60;2.88;;;13.70;99.90;;;13.46;95.40;101961.75;3936146;30;20036;-66
2021/06/07 04:55:31;;;;;;;5.68;2.58;;;13.70;99.90;;;13.51;95.56;101956.84;3936005;30;20451;-66
2021/06/07 04:57:32;;;;;;;4.28;2.50;;;13.80;99.90;;;13.54;95.62;101959.19;3935960;30;20047;-66
2021/06/07 04:59:33;;;;;;;4.18;2.92;;;13.80;99.90;;;13.56;95.96;101963.38;3936023;30;20040;-66
2021/06/07 05:01:34;;;;;;;3.90;2.63;;;13.80;99.90;;;13.63;94.93;101960.97;3936240;30;20094;-66
2021/06/07 05:03:36;;;;;;;7.22;2.97;;;13.80;99.90;;;13.56;94.94;101960.72;3936155;30;20121;-66
2021/06/07 05:05:37;;;;;;;7.35;3.20;;;13.80;99.90;;;13.63;94.71;101968.94;3936145;30;20444;-66
2021/06/07 05:07:38;;;;;;;4.55;2.70;;;13.90;99.90;;;13.63;94.80;101961.81;3936157;30;20123;-66
2021/06/07 05:09:39;;;;;;;4.13;3.10;;;13.90;99.90;;;13.80;94.46;101968.97;3936132;30;20047;-66
2021/06/07 05:11:41;;;;;;;6.50;3.33;;;14.00;99.90;;;13.67;94.80;101952.59;3935976;30;20375;-66
2021/06/07 05:13:42;;;;;;;4.95;3.17;;;14.00;99.90;;;13.72;94.89;101960.94;3935787;30;20051;-66
2021/06/07 05:15:43;;;;;;;6.65;3.05;;;14.10;99.90;;;13.77;94.74;101966.63;3936192;30;20036;-66
2021/06/07 05:17:44;;;;;;;6.32;4.00;;;14.10;99.90;;;13.85;94.22;101964.09;3935899;30;20039;-66
2021/06/07 05:19:48;;;;;;;6.82;2.95;;;14.10;99.90;;;13.83;94.88;101959.88;3935674;30;20037;-66
2021/06/07 05:21:49;;;;;;;7.00;2.95;;;14.20;99.90;;;13.86;94.83;101968.41;3935987;30;20040;-66
2021/06/07 05:23:50;;;;;;;4.47;2.50;;;14.20;99.90;;;13.91;95.02;101967.97;3935792;30;20069;-66
2021/06/07 05:25:51;;;;;;;4.07;3.22;;;14.30;99.90;;;13.92;94.82;101968.81;3935837;30;20115;-66
2021/06/07 05:27:54;;;;;;;5.72;4.20;;;14.30;99.90;;;13.91;94.95;101967.97;3935789;30;20040;-66
2021/06/07 05:29:55;;;;;;;6.72;3.33;;;14.30;99.90;;;13.98;94.44;101969.03;3935754;30;20040;-66
2021/06/07 05:31:56;;;;;;;5.78;3.40;;;14.30;99.90;;;13.99;95.41;101968.06;3935476;30;20504;-66
2021/06/07 05:33:57;;;;;;;5.10;3.25;;;14.40;99.90;;;14.00;95.34;101967.09;3935767;30;20036;-66
2021/06/07 05:35:58;;;;;;;7.38;3.45;;;14.40;99.90;;;14.09;94.62;101976.81;3935563;30;20533;-66
2021/06/07 05:38:00;;;;;;;5.75;3.90;;;14.50;99.90;;;13.90;95.04;101982.19;3935678;30;20036;-66
2021/06/07 05:40:01;;;;;;;7.85;4.18;;;14.50;99.90;;;13.87;96.29;101977.19;3935765;30;20036;-66
2021/06/07 05:42:02;;;;;;;6.47;3.95;;;14.60;99.90;;;13.97;95.75;101985.09;3938688;30;20028;-66
2021/06/07 05:44:03;;;;;;;5.97;3.65;;;14.60;99.90;;;13.95;95.71;101985.25;3938426;30;20033;-66
2021/06/07 05:46:04;;;;;;;3.95;3.40;;;14.60;99.90;;;14.01;95.92;101981.19;3938479;30;20071;-66
2021/06/07 05:48:06;;;;;;;5.50;3.63;;;14.50;99.90;;;14.08;95.84;101983.09;3938816;30;20029;-66
2021/06/07 05:50:12;;;;;;;5.10;3.55;;;14.50;99.90;;;14.05;95.74;101980.72;3938787;30;20110;-66
2021/06/07 05:52:13;;;;;;;5.22;3.80;;;14.60;99.90;;;14.13;95.49;101985.28;3938521;30;20493;-66
2021/06/07 05:54:14;;;;;;;8.98;4.43;;;14.70;99.90;;;14.06;95.54;101982.41;3922517;30;20043;-66
2021/06/07 05:56:15;;;;;;;6.45;3.58;;;14.70;99.90;;;14.17;95.98;101990.16;3938534;30;20075;-66
2021/06/07 05:58:20;;;;;;;7.20;4.07;;;14.70;99.90;;;14.16;95.63;101993.78;3922657;30;20064;-66
2021/06/07 06:00:35;;;;;;;4.43;3.35;;;14.70;99.90;;;14.21;95.76;101996.00;3938240;30;20043;-66
2021/06/07 06:02:36;;;;;;;5.97;3.75;;;14.80;99.90;;;14.31;94.96;101992.28;3938308;30;20456;-66
2021/06/07 06:04:40;;;;;;;6.22;3.53;;;14.80;99.90;;;14.38;95.25;101987.25;3938416;30;20067;-66
2021/06/07 06:06:41;;;;;;;6.35;3.45;;;14.80;99.90;;;14.42;95.11;101987.78;3938353;30;20036;-66
2021/06/07 06:08:42;;;;;;;7.45;3.78;;;14.90;99.90;;;14.35;94.62;101991.06;3938176;30;20107;-66
2021/06/07 06:10:43;;;;;;;7.50;3.90;;;14.90;99.90;;;14.47;94.81;101994.31;3938583;30;20039;-66
2021/06/07 06:12:47;;;;;;;7.55;3.50;;;15.00;99.90;;;14.56;94.81;101982.78;3938309;30;20028;-66
2021/06/07 06:14:48;;;;;;;9.63;4.50;;;15.10;99.90;;;14.48;94.24;101979.22;3938496;30;20098;-66
2021/06/07 06:16:49;;;;;;;9.55;3.72;;;15.10;99.90;;;14.50;94.72;101983.41;3938190;30;20090;-66
2021/06/07 06:18:50;;;;;;;6.45;3.83;;;15.10;99.90;;;14.56;95.00;101989.91;3938298;30;20044;-66
2021/06/07 06:20:51;;;;;;;6.47;4.80;;;15.20;99.90;;;14.68;94.90;101988.72;3938106;30;20489;-66
2021/06/07 06:22:51;;;;;;;5.95;3.83;;;15.20;99.90;;;14.66;94.77;101999.50;3938401;30;20033;-66
2021/06/07 06:24:52;;;;;;;6.97;3.92;;;15.30;99.90;;;14.71;94.15;101988.41;3938020;30;20123;-66
2021/06/07 06:26:53;;;;;;;5.30;3.80;;;15.30;99.90;;;14.56;94.25;101971.34;3938135;30;20064;-66
2021/06/07 06:28:54;;;;;;;3.88;3.35;;;15.40;99.90;;;14.79;94.60;102001.75;3937914;30;20044;-66
2021/06/07 06:30:55;;;;;;;4.53;3.63;;;15.40;99.90;;;14.78;94.43;101994.78;3938304;30;20107;-66
2021/06/07 06:33:00;;;;;;;7.07;3.90;;;15.50;99.90;;;14.83;94.50;101992.50;3938064;30;20032;-66
2021/06/07 06:35:01;;;;;;;8.38;3.95;;;15.50;99.90;;;14.86;94.53;101994.84;3938135;30;20406;-67
2021/06/07 06:37:02;;;;;;;5.82;3.85;;;15.60;99.90;;;14.97;94.80;101994.59;3937950;30;20098;-66
2021/06/07 06:39:05;;;;;;;5.30;3.42;;;15.60;99.90;;;15.06;93.66;101999.00;3938125;30;20047;-66
2021/06/07 06:41:07;;;;;;;7.97;3.83;;;15.70;99.90;;;14.94;94.09;102000.22;3937786;30;20040;-66
2021/06/07 06:43:08;;;;;;;6.38;3.38;;;15.70;99.90;;;14.94;94.45;102000.22;3937622;30;20036;-67
2021/06/07 06:45:11;;;;;;;6.50;3.72;;;15.80;99.90;;;15.07;93.82;101994.50;3937997;30;20095;-67
2021/06/07 06:47:12;;;;;;;5.55;3.58;;;15.80;99.90;;;15.23;93.56;102007.94;3937776;30;20039;-67
2021/06/07 06:49:13;;;;;;;5.80;3.80;;;15.80;99.90;;;15.25;93.61;102008.59;3937826;30;20040;-67
2021/06/07 06:51:14;;;;;;;3.88;2.92;;;15.90;99.90;;;15.37;93.91;102005.53;3925985;30;20055;-67
2021/06/07 06:53:17;;;;;;;4.60;3.78;;;15.90;99.90;;;15.34;93.03;102007.66;3937875;30;20043;-67
2021/06/07 06:55:18;;;;;;;5.93;3.63;;;16.00;99.90;;;15.37;93.02;101994.06;3937741;30;20032;-68
2021/06/07 06:57:19;;;;;;;6.80;3.53;;;16.10;99.90;;;15.54;92.45;102005.66;3937615;30;20190;-67
2021/06/07 06:59:20;;;;;;;3.83;3.17;;;16.10;99.90;;;15.56;92.41;102011.66;3937573;30;20029;-67
2021/06/07 07:01:21;;;;;;;4.63;3.28;;;16.20;99.90;;;15.60;91.55;102013.00;3937757;30;20516;-67
2021/06/07 07:03:24;;;;;;;6.70;4.10;;;16.20;99.90;;;15.57;91.81;102013.31;3937594;30;20100;-67
2021/06/07 07:05:24;;;;;;;5.32;3.63;;;16.30;99.90;;;15.64;92.00;102011.72;3937680;30;20382;-68
2021/06/07 07:07:25;;;;;;;6.15;3.17;;;16.40;99.90;;;15.52;92.51;102008.50;3937630;30;20086;-67
2021/06/07 07:09:26;;;;;;;6.68;3.20;;;16.40;99.90;;;15.76;92.37;102007.78;3937540;30;20029;-67
2021/06/07 07:11:27;;;;;;;5.70;3.42;;;16.50;99.90;;;15.82;91.61;102007.16;3937763;30;20543;-67
2021/06/07 07:13:28;;;;;;;6.07;4.07;;;16.50;99.90;;;15.89;90.71;102010.81;3934748;30;20083;-66
2021/06/07 07:15:29;;;;;;;5.72;3.30;;;16.50;99.90;;;16.01;90.46;102020.19;3927919;30;20028;-67
2021/06/07 07:17:30;;;;;;;7.25;3.67;;;16.60;99.90;;;16.04;90.20;102012.72;3933933;30;20396;-67
2021/06/07 07:19:33;;;;;;;7.20;3.75;;;16.70;99.90;;;15.95;90.70;102012.84;3935727;30;20040;-67
2021/06/07 07:21:34;;;;;;;7.40;3.60;;;16.70;99.90;;;16.14;91.06;102017.09;3936913;30;20040;-67
2021/06/07 07:23:35;;;;;;;7.95;3.92;;;16.80;99.90;;;16.26;89.41;102021.97;3936744;30;20040;-68
2021/06/07 07:25:37;;;;;;;5.60;3.67;;;16.80;99.90;;;16.26;88.88;102021.97;3937367;30;20529;-70
2021/06/07 07:27:39;;;;;;;4.70;3.40;;;17.00;99.90;;;16.35;89.43;102020.97;3937228;30;20449;-68
2021/06/07 07:29:40;;;;;;;5.57;3.53;;;17.00;99.90;;;16.24;89.23;102020.47;3937201;30;20032;-69
2021/06/07 07:31:41;;;;;;;4.93;3.38;;;17.10;99.90;;;16.39;89.25;102026.81;3937112;30;20032;-68
2021/06/07 07:33:45;;;;;;;5.10;3.17;;;17.10;99.90;;;16.50;89.03;102011.38;3934755;30;20051;-69
2021/06/07 07:35:46;;;;;;;;;;;17.10;99.90;;;16.62;87.63;102017.25;3927724;30;20047;-68
2021/06/07 07:37:47;;;;;;;6.13;3.33;;;17.20;99.90;;;16.62;87.26;102014.56;3916740;30;20084;-68
2021/06/07 07:39:49;;;;;;;3.47;3.17;;;17.40;99.90;;;16.84;87.29;102016.63;3923275;30;20076;-68
2021/06/07 07:41:50;;;;;;;3.58;3.13;;;17.40;99.90;;;16.91;87.13;102016.75;3933352;30;20055;-68
2021/06/07 07:43:51;;;;;;;4.70;3.47;;;17.50;99.90;;;16.87;86.45;102018.09;3924386;30;20037;-68
2021/06/07 07:45:52;;;;;;;4.57;3.03;;;17.60;99.90;;;16.95;87.06;102018.09;3927937;30;20543;-68
2021/06/07 07:47:59;;;;;;;3.38;2.80;;;17.60;99.90;;;17.09;86.63;102004.09;3920883;30;20040;-68
2021/06/07 07:50:02;;;;;;;4.18;2.95;;;17.70;99.90;;;17.30;86.26;102012.41;3922446;30;20075;-68
2021/06/07 07:52:06;;;;;;;3.73;3.33;;;17.80;99.90;;;17.41;85.22;102009.38;3922200;30;20060;-67
2021/06/07 07:54:08;;;;;;;3.97;3.37;;;17.90;99.90;;;17.33;84.94;102001.41;3926812;30;20636;-67
2021/06/07 07:56:09;;;;;;;5.82;3.25;;;18.00;99.90;;;17.32;84.60;102010.44;3935288;30;20489;-67
2021/06/07 07:58:11;;;;;;;4.13;2.83;;;18.10;99.90;;;17.49;83.98;102005.88;3935130;30;20032;-68
2021/06/07 08:00:13;;;;;;;3.50;2.83;;;18.20;99.90;;;17.58;83.77;102011.06;3936850;30;20043;-68
2021/06/07 08:02:14;;;;;;;3.28;2.97;;;18.30;99.90;;;17.70;83.96;102006.19;3920704;30;20028;-68
2021/06/07 08:04:15;;;;;;;4.25;3.22;;;18.50;99.90;;;17.67;83.51;102010.03;3935907;30;20071;-68
2021/06/07 08:06:16;;;;;;;4.82;2.80;;;18.50;99.90;;;17.71;83.33;102009.69;3925611;30;20406;-68
2021/06/07 08:08:17;;;;;;;3.70;3.03;;;18.60;99.90;;;17.77;83.19;102017.81;3921873;30;20099;-68
2021/06/07 08:10:18;;;;;;;4.38;3.30;;;18.60;99.90;;;17.79;83.17;102020.34;3933087;30;20445;-69
2021/06/07 08:12:19;;;;;;;4.13;3.13;;;18.70;99.90;;;18.06;82.87;102019.91;3916566;30;20036;-69
2021/06/07 08:14:20;;;;;;;2.78;2.47;;;18.80;99.90;;;18.25;82.77;102019.47;3921806;30;20044;-69
2021/06/07 08:16:21;;;;;;;2.80;2.55;;;18.90;99.90;;;18.43;81.41;102014.69;3921946;30;20040;-69
2021/06/07 08:18:22;;;;;;;4.47;3.20;;;19.10;99.90;;;18.52;80.42;102020.84;3921810;30;20036;-69
2021/06/07 08:20:23;;;;;;;4.85;3.00;;;19.20;99.90;;;18.68;79.93;102013.56;3921697;30;20048;-68
2021/06/07 08:22:24;;;;;;;4.45;3.00;;;19.30;99.90;;;18.77;79.44;102022.34;3921858;30;20033;-69
2021/06/07 08:24:25;;;;;;;8.30;3.15;;;19.40;99.90;;;18.91;78.44;102018.88;3921667;30;20041;-68
2021/06/07 08:26:26;;;;;;;3.53;2.20;;;19.50;99.90;;;18.80;79.19;102019.31;3921694;30;20518;-69
2021/06/07 08:28:27;;;;;;;3.92;2.40;;;19.70;99.90;;;19.09;79.18;102023.91;3921240;30;20036;-69